createdAt,value
2019-05-23T00:00:18.898Z,84.70459
2019-05-23T00:01:19.957Z,84.802246
2019-05-23T00:02:19.012Z,85.009766
2019-05-23T00:03:19.067Z,85.314941
2019-05-23T00:04:19.133Z,85.314941
2019-05-23T00:05:19.240Z,85.314941
2019-05-23T00:06:19.291Z,85.418701
2019-05-23T00:07:19.368Z,85.418701
2019-05-23T00:08:19.422Z,85.418701
2019-05-23T00:09:19.479Z,85.418701
2019-05-23T00:10:19.573Z,85.522461
2019-05-23T00:11:19.660Z,85.461426
2019-05-23T00:12:19.760Z,85.559082
2019-05-23T00:13:19.912Z,85.662842
2019-05-23T00:14:19.973Z,85.870361
2019-05-23T00:15:21.097Z,86.071777
2019-05-23T00:16:20.139Z,86.175537
2019-05-23T00:17:20.190Z,86.279297
2019-05-23T00:18:21.176Z,86.383057
2019-05-23T00:19:21.296Z,86.523438
2019-05-23T00:20:20.393Z,86.627197
2019-05-23T00:21:20.483Z,86.523438
2019-05-23T00:22:21.544Z,86.627197
2019-05-23T00:23:20.674Z,86.627197
2019-05-23T00:24:20.731Z,86.627197
2019-05-23T00:25:21.799Z,86.523438
2019-05-23T00:26:20.904Z,86.523438
2019-05-23T00:27:20.983Z,86.523438
2019-05-23T00:28:21.042Z,86.730957
2019-05-23T00:29:21.101Z,86.730957
2019-05-23T00:30:22.163Z,86.730957
2019-05-23T00:31:21.458Z,86.730957
2019-05-23T00:32:21.353Z,86.730957
2019-05-23T00:33:21.420Z,86.730957
2019-05-23T00:34:21.534Z,86.730957
2019-05-23T00:35:21.549Z,86.730957
2019-05-23T00:36:21.656Z,86.627197
2019-05-23T00:37:22.730Z,86.566162
2019-05-23T00:38:21.817Z,86.663818
2019-05-23T00:39:22.028Z,86.663818
2019-05-23T00:40:21.930Z,86.767578
2019-05-23T00:41:22.006Z,86.871338
2019-05-23T00:42:23.068Z,86.975098
2019-05-23T00:43:22.133Z,87.078857
2019-05-23T00:44:23.177Z,87.176514
2019-05-23T00:45:22.305Z,87.280273
2019-05-23T00:46:22.415Z,87.384033
2019-05-23T00:47:22.502Z,87.384033
2019-05-23T00:48:22.589Z,87.384033
2019-05-23T00:49:22.661Z,87.384033
2019-05-23T00:50:22.722Z,87.384033
2019-05-23T00:51:22.780Z,87.426758
2019-05-23T00:52:22.869Z,87.322998
2019-05-23T00:53:23.949Z,87.426758
2019-05-23T00:54:23.022Z,87.426758
2019-05-23T00:55:23.082Z,87.426758
2019-05-23T00:56:23.155Z,87.530518
2019-05-23T00:57:23.246Z,87.426758
2019-05-23T00:58:23.308Z,87.530518
2019-05-23T00:59:26.884Z,87.530518
2019-05-23T01:00:23.401Z,87.530518
2019-05-23T01:01:23.497Z,87.530518
2019-05-23T01:02:24.574Z,87.628174
2019-05-23T01:03:23.626Z,87.628174
2019-05-23T01:04:23.701Z,87.731934
2019-05-23T01:05:23.758Z,87.835693
2019-05-23T01:06:23.802Z,87.835693
2019-05-23T01:07:23.920Z,87.835693
2019-05-23T01:08:23.990Z,87.835693
2019-05-23T01:09:24.139Z,87.835693
2019-05-23T01:10:24.219Z,87.878418
2019-05-23T01:11:24.284Z,87.982178
2019-05-23T01:12:24.381Z,87.878418
2019-05-23T01:13:24.447Z,87.774658
2019-05-23T01:14:24.537Z,87.670898
2019-05-23T01:15:24.600Z,87.774658
2019-05-23T01:16:24.690Z,87.774658
2019-05-23T01:17:24.847Z,88.079834
2019-05-23T01:18:24.914Z,88.287354
2019-05-23T01:19:24.991Z,88.287354
2019-05-23T01:20:25.069Z,88.183594
2019-05-23T01:21:25.131Z,88.079834
2019-05-23T01:22:25.225Z,88.122559
2019-05-23T01:23:25.208Z,88.122559
2019-05-23T01:24:26.261Z,88.122559
2019-05-23T01:25:25.377Z,88.226318
2019-05-23T01:26:25.470Z,88.330078
2019-05-23T01:27:26.605Z,88.330078
2019-05-23T01:28:25.725Z,88.226318
2019-05-23T01:29:25.776Z,88.226318
2019-05-23T01:30:25.797Z,88.122559
2019-05-23T01:31:25.879Z,88.226318
2019-05-23T01:32:25.977Z,88.226318
2019-05-23T01:33:26.138Z,88.226318
2019-05-23T01:34:26.038Z,88.226318
2019-05-23T01:35:26.105Z,88.226318
2019-05-23T01:36:27.161Z,88.226318
2019-05-23T01:37:26.262Z,88.226318
2019-05-23T01:38:26.306Z,88.330078
2019-05-23T01:39:26.363Z,88.470459
2019-05-23T01:40:26.438Z,88.574219
2019-05-23T01:41:26.493Z,88.574219
2019-05-23T01:42:26.598Z,88.781738
2019-05-23T01:43:26.692Z,88.781738
2019-05-23T01:44:27.740Z,88.677979
2019-05-23T01:45:26.806Z,88.677979
2019-05-23T01:46:26.859Z,88.677979
2019-05-23T01:47:26.915Z,88.781738
2019-05-23T01:48:27.044Z,88.781738
2019-05-23T01:49:27.103Z,88.885498
2019-05-23T01:50:28.178Z,88.885498
2019-05-23T01:51:27.287Z,88.885498
2019-05-23T01:52:28.331Z,88.781738
2019-05-23T01:53:27.447Z,88.781738
2019-05-23T01:54:27.525Z,88.885498
2019-05-23T01:55:27.603Z,88.885498
2019-05-23T01:56:27.678Z,88.983154
2019-05-23T01:57:27.829Z,88.983154
2019-05-23T01:58:27.944Z,88.983154
2019-05-23T01:59:28.011Z,88.983154
2019-05-23T02:00:28.077Z,88.983154
2019-05-23T02:01:28.132Z,88.885498
2019-05-23T02:02:28.188Z,88.885498
2019-05-23T02:03:28.274Z,88.983154
2019-05-23T02:04:28.342Z,89.025879
2019-05-23T02:05:28.415Z,89.129639
2019-05-23T02:06:28.477Z,89.233398
2019-05-23T02:07:28.528Z,89.233398
2019-05-23T02:08:28.825Z,89.233398
2019-05-23T02:09:28.750Z,89.337158
2019-05-23T02:10:28.818Z,89.440918
2019-05-23T02:11:28.874Z,89.440918
2019-05-23T02:12:28.945Z,89.440918
2019-05-23T02:13:29.010Z,89.440918
2019-05-23T02:14:29.082Z,89.440918
2019-05-23T02:15:29.150Z,89.440918
2019-05-23T02:16:29.215Z,89.538574
2019-05-23T02:17:29.293Z,89.538574
2019-05-23T02:18:30.350Z,89.538574
2019-05-23T02:19:29.476Z,89.642334
2019-05-23T02:20:29.551Z,89.685059
2019-05-23T02:21:29.705Z,89.685059
2019-05-23T02:22:29.758Z,89.685059
2019-05-23T02:23:29.811Z,89.685059
2019-05-23T02:24:29.911Z,89.788818
2019-05-23T02:25:29.986Z,89.788818
2019-05-23T02:26:30.053Z,89.685059
2019-05-23T02:27:30.116Z,89.788818
2019-05-23T02:28:30.254Z,89.788818
2019-05-23T02:29:30.371Z,89.892578
2019-05-23T02:30:34.433Z,89.892578
2019-05-23T02:31:30.478Z,89.892578
2019-05-23T02:32:30.535Z,89.892578
2019-05-23T02:33:30.594Z,89.996338
2019-05-23T02:34:30.685Z,89.996338
2019-05-23T02:35:30.763Z,89.996338
2019-05-23T02:36:30.867Z,90.093994
2019-05-23T02:37:30.948Z,89.996338
2019-05-23T02:38:31.007Z,89.996338
2019-05-23T02:39:31.090Z,89.996338
2019-05-23T02:40:31.146Z,90.093994
2019-05-23T02:41:31.204Z,90.093994
2019-05-23T02:42:31.266Z,90.093994
2019-05-23T02:43:31.317Z,90.093994
2019-05-23T02:44:31.421Z,90.240479
2019-05-23T02:45:31.478Z,90.240479
2019-05-23T02:46:31.544Z,90.240479
2019-05-23T02:47:31.596Z,90.240479
2019-05-23T02:48:31.611Z,90.240479
2019-05-23T02:49:31.709Z,90.240479
2019-05-23T02:50:31.778Z,90.136719
2019-05-23T02:51:31.839Z,90.136719
2019-05-23T02:52:31.903Z,90.136719
2019-05-23T02:53:31.972Z,90.136719
2019-05-23T02:54:32.039Z,90.240479
2019-05-23T02:55:32.143Z,90.240479
2019-05-23T02:56:32.199Z,90.240479
2019-05-23T02:57:32.247Z,90.240479
2019-05-23T02:58:33.289Z,90.240479
2019-05-23T02:59:32.341Z,90.240479
2019-05-23T03:00:50.731Z,90.344238
2019-05-23T03:01:32.428Z,90.344238
2019-05-23T03:02:32.505Z,90.240479
2019-05-23T03:03:32.557Z,90.240479
2019-05-23T03:04:32.652Z,90.240479
2019-05-23T03:05:32.730Z,90.136719
2019-05-23T03:06:32.871Z,90.179443
2019-05-23T03:07:32.939Z,90.179443
2019-05-23T03:08:33.057Z,90.179443
2019-05-23T03:09:33.105Z,90.283203
2019-05-23T03:10:33.218Z,90.283203
2019-05-23T03:11:33.276Z,90.283203
2019-05-23T03:12:33.339Z,90.386963
2019-05-23T03:13:33.462Z,90.386963
2019-05-23T03:14:33.531Z,90.386963
2019-05-23T03:15:33.678Z,90.490723
2019-05-23T03:16:33.747Z,90.594482
2019-05-23T03:17:33.817Z,90.490723
2019-05-23T03:18:35.103Z,90.490723
2019-05-23T03:19:33.925Z,90.490723
2019-05-23T03:20:34.041Z,90.490723
2019-05-23T03:21:34.101Z,90.490723
2019-05-23T03:22:34.158Z,90.490723
2019-05-23T03:23:34.212Z,90.490723
2019-05-23T03:24:34.289Z,90.490723
2019-05-23T03:25:34.456Z,90.386963
2019-05-23T03:26:34.510Z,90.490723
2019-05-23T03:27:34.604Z,90.594482
2019-05-23T03:28:34.698Z,90.637207
2019-05-23T03:29:34.760Z,90.594482
2019-05-23T03:30:34.837Z,90.637207
2019-05-23T03:31:34.876Z,90.734863
2019-05-23T03:32:38.455Z,90.838623
2019-05-23T03:33:35.010Z,91.046143
2019-05-23T03:34:35.076Z,91.149902
2019-05-23T03:35:35.110Z,91.253662
2019-05-23T03:36:35.253Z,91.357422
2019-05-23T03:37:35.301Z,91.357422
2019-05-23T03:38:35.279Z,91.461182
2019-05-23T03:39:35.426Z,91.558838
2019-05-23T03:40:36.551Z,91.558838
2019-05-23T03:41:35.547Z,91.662598
2019-05-23T03:42:35.681Z,91.766357
2019-05-23T03:43:36.664Z,91.870117
2019-05-23T03:44:35.656Z,91.973877
2019-05-23T03:45:39.428Z,91.973877
2019-05-23T03:46:35.881Z,92.077637
2019-05-23T03:47:35.934Z,92.285156
2019-05-23T03:48:35.947Z,92.382812
2019-05-23T03:49:35.965Z,92.590332
2019-05-23T03:50:35.994Z,92.694092
2019-05-23T03:51:36.002Z,92.797852
2019-05-23T03:52:36.042Z,92.694092
2019-05-23T03:53:36.039Z,92.694092
2019-05-23T03:54:36.047Z,92.651367
2019-05-23T03:55:36.099Z,92.651367
2019-05-23T03:56:36.086Z,92.651367
2019-05-23T03:57:36.130Z,92.755127
2019-05-23T03:58:36.193Z,93.060303
2019-05-23T03:59:36.192Z,93.164062
2019-05-23T04:00:36.197Z,93.371582
2019-05-23T04:01:47.481Z,93.475342
2019-05-23T04:02:37.481Z,93.475342
2019-05-23T04:03:39.789Z,93.579102
2019-05-23T04:04:36.485Z,93.579102
2019-05-23T04:05:36.492Z,93.579102
2019-05-23T04:06:36.498Z,93.475342
2019-05-23T04:07:36.524Z,93.371582
2019-05-23T04:08:36.520Z,93.371582
2019-05-23T04:09:36.539Z,93.328857
2019-05-23T04:10:36.539Z,93.328857
2019-05-23T04:11:37.695Z,93.328857
2019-05-23T04:12:37.882Z,93.328857
2019-05-23T04:13:36.869Z,93.328857
2019-05-23T04:14:36.884Z,93.328857
2019-05-23T04:15:36.919Z,93.432617
2019-05-23T04:16:36.930Z,93.432617
2019-05-23T04:17:36.961Z,93.432617
2019-05-23T04:18:36.983Z,93.432617
2019-05-23T04:19:36.989Z,93.536377
2019-05-23T04:20:37.011Z,93.536377
2019-05-23T04:21:37.012Z,93.536377
2019-05-23T04:22:37.019Z,93.640137
2019-05-23T04:23:37.066Z,93.591309
2019-05-23T04:24:37.079Z,93.591309
2019-05-23T04:25:37.268Z,93.591309
2019-05-23T04:26:37.266Z,93.591309
2019-05-23T04:27:37.321Z,93.591309
2019-05-23T04:28:37.352Z,93.591309
2019-05-23T04:29:37.416Z,93.695068
2019-05-23T04:30:37.424Z,93.695068
2019-05-23T04:31:37.524Z,93.652344
2019-05-23T04:32:38.702Z,93.652344
2019-05-23T04:33:37.552Z,93.756104
2019-05-23T04:34:37.596Z,93.756104
2019-05-23T04:35:37.613Z,93.652344
2019-05-23T04:36:37.616Z,93.652344
2019-05-23T04:37:37.637Z,93.652344
2019-05-23T04:38:38.701Z,93.652344
2019-05-23T04:39:37.702Z,93.652344
2019-05-23T04:40:37.707Z,93.652344
2019-05-23T04:41:37.707Z,93.609619
2019-05-23T04:42:37.703Z,93.609619
2019-05-23T04:43:37.741Z,93.713379
2019-05-23T04:44:37.768Z,93.609619
2019-05-23T04:45:37.924Z,93.609619
2019-05-23T04:46:37.965Z,93.505859
2019-05-23T04:47:37.988Z,93.609619
2019-05-23T04:48:38.029Z,93.505859
2019-05-23T04:49:38.040Z,93.463135
2019-05-23T04:50:38.068Z,93.463135
2019-05-23T04:51:38.057Z,93.566895
2019-05-23T04:52:38.070Z,93.566895
2019-05-23T04:53:38.103Z,93.566895
2019-05-23T04:54:38.102Z,93.566895
2019-05-23T04:55:38.134Z,93.566895
2019-05-23T04:56:38.118Z,93.566895
2019-05-23T04:57:38.123Z,93.52417
2019-05-23T04:58:38.180Z,93.42041
2019-05-23T04:59:38.173Z,93.42041
2019-05-23T05:00:38.197Z,93.42041
2019-05-23T05:01:38.219Z,93.31665
2019-05-23T05:02:38.219Z,93.31665
2019-05-23T05:03:38.255Z,93.212891
2019-05-23T05:04:38.305Z,93.212891
2019-05-23T05:05:38.323Z,93.212891
2019-05-23T05:06:38.349Z,93.115234
2019-05-23T05:07:38.391Z,93.115234
2019-05-23T05:08:38.406Z,93.115234
2019-05-23T05:09:38.461Z,93.066406
2019-05-23T05:10:38.456Z,93.066406
2019-05-23T05:11:38.456Z,93.066406
2019-05-23T05:12:38.468Z,93.066406
2019-05-23T05:13:38.467Z,93.066406
2019-05-23T05:14:38.505Z,93.066406
2019-05-23T05:15:38.512Z,92.96875
2019-05-23T05:16:38.521Z,92.822266
2019-05-23T05:17:38.509Z,92.718506
2019-05-23T05:18:38.510Z,92.510986
2019-05-23T05:19:38.554Z,92.510986
2019-05-23T05:20:38.568Z,92.510986
2019-05-23T05:21:38.580Z,92.41333
2019-05-23T05:22:38.575Z,92.41333
2019-05-23T05:23:38.712Z,92.41333
2019-05-23T05:24:40.177Z,92.41333
2019-05-23T05:25:38.808Z,92.41333
2019-05-23T05:26:38.834Z,92.266846
2019-05-23T05:27:38.851Z,92.163086
2019-05-23T05:28:38.858Z,92.059326
2019-05-23T05:29:38.893Z,92.059326
2019-05-23T05:30:38.930Z,92.059326
2019-05-23T05:31:38.967Z,91.955566
2019-05-23T05:32:44.505Z,91.815186
2019-05-23T05:33:39.013Z,91.711426
2019-05-23T05:34:39.040Z,91.607666
2019-05-23T05:35:39.080Z,91.607666
2019-05-23T05:36:39.087Z,91.503906
2019-05-23T05:37:39.100Z,91.503906
2019-05-23T05:38:39.137Z,91.400146
2019-05-23T05:39:39.155Z,91.259766
2019-05-23T05:40:39.202Z,91.052246
2019-05-23T05:41:39.218Z,90.74707
2019-05-23T05:42:39.225Z,90.539551
2019-05-23T05:43:39.224Z,90.539551
2019-05-23T05:44:39.227Z,90.539551
2019-05-23T05:45:39.279Z,90.496826
2019-05-23T05:46:39.364Z,89.984131
2019-05-23T05:47:39.425Z,89.16626
2019-05-23T05:48:39.480Z,89.16626
2019-05-23T05:49:42.179Z,89.373779
2019-05-23T05:50:39.688Z,89.373779
2019-05-23T05:51:39.773Z,88.616943
2019-05-23T05:52:39.785Z,88.616943
2019-05-23T05:53:39.801Z,88.7146
2019-05-23T05:54:39.815Z,88.409424
2019-05-23T05:55:39.835Z,88.000488
2019-05-23T05:56:39.879Z,88.061523
2019-05-23T05:57:39.875Z,87.548828
2019-05-23T05:58:39.902Z,87.548828
2019-05-23T05:59:39.928Z,87.652588
2019-05-23T06:00:40.018Z,87.756348
2019-05-23T06:01:40.074Z,87.756348
2019-05-23T06:02:40.083Z,87.609863
2019-05-23T06:03:41.098Z,87.609863
2019-05-23T06:04:40.088Z,87.103271
2019-05-23T06:05:40.134Z,87.304688
2019-05-23T06:06:40.231Z,87.200928
2019-05-23T06:07:40.316Z,87.103271
2019-05-23T06:08:40.337Z,86.853027
2019-05-23T06:09:40.464Z,86.651611
2019-05-23T06:10:40.497Z,86.755371
2019-05-23T06:11:40.645Z,86.853027
2019-05-23T06:12:40.671Z,86.651611
2019-05-23T06:13:40.680Z,86.407471
2019-05-23T06:14:40.685Z,85.894775
2019-05-23T06:15:40.850Z,85.5896
2019-05-23T06:16:40.909Z,85.693359
2019-05-23T06:17:40.920Z,85.137939
2019-05-23T06:18:41.029Z,84.423828
2019-05-23T06:19:41.037Z,85.040283
2019-05-23T06:20:41.158Z,85.345459
2019-05-23T06:21:42.213Z,85.101318
2019-05-23T06:22:41.213Z,84.899902
2019-05-23T06:23:41.227Z,84.387207
2019-05-23T06:24:48.642Z,84.179688
2019-05-23T06:25:41.311Z,83.776855
2019-05-23T06:26:41.376Z,83.02002
2019-05-23T06:27:41.398Z,82.611084
2019-05-23T06:28:41.588Z,82.714844
2019-05-23T06:29:41.469Z,82.305908
2019-05-23T06:30:41.500Z,82.104492
2019-05-23T06:31:41.565Z,82.067871
2019-05-23T06:32:41.613Z,81.756592
2019-05-23T06:33:41.586Z,81.658936
2019-05-23T06:34:41.594Z,81.451416
2019-05-23T06:35:41.610Z,81.35376
2019-05-23T06:36:41.657Z,81.311035
2019-05-23T06:37:41.697Z,81.311035
2019-05-23T06:38:41.734Z,80.194092
2019-05-23T06:39:41.749Z,79.986572
2019-05-23T06:40:41.775Z,78.527832
2019-05-23T06:41:41.887Z,79.23584
2019-05-23T06:42:41.865Z,79.443359
2019-05-23T06:43:41.879Z,78.997803
2019-05-23T06:44:41.917Z,78.283691
2019-05-23T06:45:41.911Z,78.186035
2019-05-23T06:46:42.918Z,78.491211
2019-05-23T06:47:41.938Z,78.491211
2019-05-23T06:48:45.523Z,78.35083
2019-05-23T06:49:42.008Z,79.266357
2019-05-23T06:50:42.077Z,77.941895
2019-05-23T06:51:42.200Z,78.24707
2019-05-23T06:52:42.282Z,78.45459
2019-05-23T06:53:42.301Z,78.35083
2019-05-23T06:54:42.305Z,78.112793
2019-05-23T06:55:42.312Z,77.600098
2019-05-23T06:56:42.323Z,77.502441
2019-05-23T06:57:42.614Z,77.600098
2019-05-23T06:58:42.402Z,77.093506
2019-05-23T06:59:42.428Z,77.197266
2019-05-23T07:00:42.435Z,75.872803
2019-05-23T07:01:42.454Z,75.12207
2019-05-23T07:02:42.515Z,75.531006
2019-05-23T07:03:43.701Z,76.141357
2019-05-23T07:04:42.573Z,75.732422
2019-05-23T07:05:42.602Z,75.22583
2019-05-23T07:06:42.623Z,75.732422
2019-05-23T07:07:42.665Z,75.939941
2019-05-23T07:08:42.711Z,76.855469
2019-05-23T07:09:42.743Z,76.141357
2019-05-23T07:10:42.965Z,76.306152
2019-05-23T07:11:42.790Z,76.208496
2019-05-23T07:12:42.828Z,76.104736
2019-05-23T07:13:42.890Z,76.513672
2019-05-23T07:14:42.901Z,76.409912
2019-05-23T07:15:42.912Z,75.396729
2019-05-23T07:16:42.960Z,76.208496
2019-05-23T07:17:43.086Z,76.275635
2019-05-23T07:18:43.121Z,76.782227
2019-05-23T07:19:43.161Z,76.678467
2019-05-23T07:20:43.162Z,76.477051
2019-05-23T07:21:43.171Z,77.148438
2019-05-23T07:22:43.178Z,77.050781
2019-05-23T07:23:43.239Z,76.745605
2019-05-23T07:24:57.270Z,76.44043
2019-05-23T07:25:44.317Z,76.031494
2019-05-23T07:26:43.453Z,75.390625
2019-05-23T07:27:44.549Z,75.219727
2019-05-23T07:28:43.697Z,70.251465
2019-05-23T07:29:43.656Z,68.54248
2019-05-23T07:30:43.775Z,61.51123
2019-05-23T07:31:43.922Z,58.056641
2019-05-23T07:32:44.104Z,58.02002
2019-05-23T07:34:00.205Z,51.593018
2019-05-23T07:34:45.284Z,50.567627
2019-05-23T07:35:44.386Z,51.318359
2019-05-23T07:36:44.536Z,48.754883
2019-05-23T07:37:44.617Z,47.711182
2019-05-23T07:38:44.772Z,45.574951
2019-05-23T07:39:44.875Z,48.065186
2019-05-23T07:40:45.003Z,47.741699
2019-05-23T07:41:45.118Z,45.709229
2019-05-23T07:42:45.235Z,44.476318
2019-05-23T07:43:45.411Z,43.457031
2019-05-23T07:44:48.132Z,43.756104
2019-05-23T07:45:45.602Z,44.134521
2019-05-23T07:46:45.754Z,44.134521
2019-05-23T07:47:45.874Z,44.213867
2019-05-23T07:48:46.007Z,42.285156
2019-05-23T07:49:45.995Z,41.412354
2019-05-23T07:50:46.121Z,42.803955
2019-05-23T07:51:46.231Z,43.475342
2019-05-23T07:52:46.362Z,41.156006
2019-05-23T07:53:46.509Z,41.534424
2019-05-23T07:54:46.718Z,40.838623
2019-05-23T07:55:46.660Z,40.722656
2019-05-23T07:56:46.795Z,40.625
2019-05-23T07:57:46.915Z,40.722656
2019-05-23T07:58:47.027Z,41.534424
2019-05-23T07:59:47.204Z,40.368652
2019-05-23T08:00:47.220Z,40.246582
2019-05-23T08:01:47.235Z,39.556885
2019-05-23T08:02:48.330Z,40.740967
2019-05-23T08:03:47.440Z,41.021729
2019-05-23T08:04:47.626Z,38.842773
2019-05-23T08:05:47.624Z,39.520264
2019-05-23T08:06:48.869Z,39.123535
2019-05-23T08:07:47.956Z,38.922119
2019-05-23T08:08:47.737Z,38.348389
2019-05-23T08:09:47.884Z,38.726807
2019-05-23T08:10:47.998Z,39.141846
2019-05-23T08:11:48.075Z,40.307617
2019-05-23T08:12:48.175Z,38.62915
2019-05-23T08:13:48.297Z,38.903809
2019-05-23T08:14:48.454Z,39.001465
2019-05-23T08:15:48.447Z,39.874268
2019-05-23T08:16:48.560Z,37.322998
2019-05-23T08:17:48.672Z,38.348389
2019-05-23T08:18:48.799Z,38.348389
2019-05-23T08:19:50.465Z,38.470459
2019-05-23T08:20:49.046Z,39.813232
2019-05-23T08:21:49.162Z,39.282227
2019-05-23T08:22:49.186Z,38.15918
2019-05-23T08:23:49.266Z,37.29248
2019-05-23T08:24:51.193Z,38.195801
2019-05-23T08:25:49.353Z,38.079834
2019-05-23T08:26:49.376Z,36.914062
2019-05-23T08:27:49.400Z,36.456299
2019-05-23T08:29:11.922Z,37.872314
2019-05-23T08:29:50.573Z,39.099121
2019-05-23T08:30:50.756Z,40.246582
2019-05-23T08:31:49.718Z,41.516113
2019-05-23T08:32:49.877Z,41.05835
2019-05-23T08:33:50.016Z,42.193604
2019-05-23T08:34:50.105Z,43.62793
2019-05-23T08:35:50.155Z,44.647217
2019-05-23T08:36:50.131Z,45.08667
2019-05-23T08:37:50.261Z,46.105957
2019-05-23T08:38:50.408Z,45.88623
2019-05-23T08:39:50.657Z,46.258545
2019-05-23T08:40:50.664Z,45.08667
2019-05-23T08:41:50.651Z,45.526123
2019-05-23T08:42:50.807Z,45.672607
2019-05-23T08:43:50.837Z,46.09375
2019-05-23T08:44:50.846Z,46.716309
2019-05-23T08:45:50.866Z,45.812988
2019-05-23T08:46:50.951Z,45.837402
2019-05-23T08:47:50.965Z,47.039795
2019-05-23T08:48:50.969Z,46.160889
2019-05-23T08:49:50.963Z,46.582031
2019-05-23T08:50:51.619Z,46.002197
2019-05-23T08:51:51.066Z,45.001221
2019-05-23T08:52:51.064Z,44.018555
2019-05-23T08:53:51.067Z,42.633057
2019-05-23T08:54:51.194Z,43.939209
2019-05-23T08:55:51.236Z,45.08667
2019-05-23T08:56:51.260Z,44.885254
2019-05-23T08:57:51.277Z,45.20874
2019-05-23T08:58:51.290Z,46.514893
2019-05-23T08:59:51.319Z,47.015381
2019-05-23T09:00:51.350Z,48.046875
2019-05-23T09:01:51.387Z,47.619629
2019-05-23T09:02:51.562Z,47.418213
2019-05-23T09:03:51.504Z,47.540283
2019-05-23T09:05:04.072Z,47.521973
2019-05-23T09:05:51.724Z,47.540283
2019-05-23T09:06:51.787Z,48.547363
2019-05-23T09:07:51.860Z,47.241211
2019-05-23T09:08:51.883Z,48.748779
2019-05-23T09:09:51.912Z,48.547363
2019-05-23T09:10:51.917Z,47.717285
2019-05-23T09:11:51.951Z,44.805908
2019-05-23T09:12:51.961Z,46.21582
2019-05-23T09:13:52.017Z,44.403076
2019-05-23T09:14:52.045Z,44.506836
2019-05-23T09:15:52.713Z,44.708252
2019-05-23T09:16:52.240Z,45.227051
2019-05-23T09:17:54.010Z,46.032715
2019-05-23T09:18:52.240Z,44.726562
2019-05-23T09:19:52.266Z,47.137451
2019-05-23T09:20:52.265Z,47.216797
2019-05-23T09:21:57.376Z,46.21582
2019-05-23T09:22:52.302Z,45.007324
2019-05-23T09:23:52.320Z,47.216797
2019-05-23T09:24:52.351Z,46.411133
2019-05-23T09:25:52.361Z,45.410156
2019-05-23T09:26:52.444Z,43.798828
2019-05-23T09:27:52.435Z,44.708252
2019-05-23T09:28:52.458Z,45.611572
2019-05-23T09:29:52.465Z,45.007324
2019-05-23T09:30:52.481Z,45.812988
2019-05-23T09:31:52.552Z,45.910645
2019-05-23T09:32:52.569Z,46.313477
2019-05-23T09:33:52.593Z,45.306396
2019-05-23T09:34:52.637Z,45.410156
2019-05-23T09:35:53.630Z,46.716309
2019-05-23T09:36:52.653Z,45.831299
2019-05-23T09:37:52.660Z,48.223877
2019-05-23T09:38:52.670Z,47.320557
2019-05-23T09:39:52.678Z,46.514893
2019-05-23T09:40:52.691Z,47.320557
2019-05-23T09:41:52.714Z,48.022461
2019-05-23T09:42:52.769Z,43.096924
2019-05-23T09:43:52.815Z,43.884277
2019-05-23T09:44:52.850Z,42.071533
2019-05-23T09:45:52.847Z,42.39502
2019-05-23T09:46:52.881Z,45.507812
2019-05-23T09:47:52.958Z,44.30542
2019-05-23T09:48:52.968Z,45.910645
2019-05-23T09:49:54.415Z,45.306396
2019-05-23T09:50:52.981Z,45.20874
2019-05-23T09:51:56.493Z,45.611572
2019-05-23T09:52:53.151Z,46.411133
2019-05-23T09:53:53.155Z,43.579102
2019-05-23T09:54:53.153Z,43.377686
2019-05-23T09:55:55.745Z,42.657471
2019-05-23T09:56:53.179Z,41.75415
2019-05-23T09:57:53.213Z,42.956543
2019-05-23T09:58:53.235Z,43.939209
2019-05-23T09:59:56.856Z,42.132568
2019-05-23T10:00:53.402Z,44.042969
2019-05-23T10:01:53.562Z,45.446777
2019-05-23T10:02:53.622Z,44.543457
2019-05-23T10:03:53.630Z,44.744873
2019-05-23T10:04:53.656Z,44.042969
2019-05-23T10:05:53.699Z,44.641113
2019-05-23T10:06:53.758Z,43.139648
2019-05-23T10:07:53.763Z,43.237305
2019-05-23T10:08:53.809Z,43.438721
2019-05-23T10:09:53.885Z,43.438721
2019-05-23T10:10:53.916Z,44.342041
2019-05-23T10:11:53.939Z,47.650146
2019-05-23T10:12:54.007Z,44.238281
2019-05-23T10:13:54.053Z,42.938232
2019-05-23T10:14:54.078Z,43.139648
2019-05-23T10:15:54.100Z,43.640137
2019-05-23T10:16:54.086Z,45.343018
2019-05-23T10:17:54.140Z,44.842529
2019-05-23T10:18:54.211Z,43.536377
2019-05-23T10:19:54.345Z,43.017578
2019-05-23T10:20:54.379Z,43.817139
2019-05-23T10:21:54.603Z,44.0979
2019-05-23T10:22:54.479Z,45.178223
2019-05-23T10:23:54.575Z,44.555664
2019-05-23T10:24:54.650Z,42.633057
2019-05-23T10:25:54.694Z,41.711426
2019-05-23T10:26:54.815Z,41.894531
2019-05-23T10:27:55.858Z,38.757324
2019-05-23T10:28:54.937Z,40.014648
2019-05-23T10:29:54.955Z,38.684082
2019-05-23T10:30:54.995Z,39.422607
2019-05-23T10:31:55.149Z,38.891602
2019-05-23T10:32:55.399Z,37.695312
2019-05-23T10:33:56.348Z,36.981201
2019-05-23T10:34:55.498Z,37.164307
2019-05-23T10:36:00.159Z,36.230469
2019-05-23T10:36:55.566Z,35.540771
2019-05-23T10:37:55.613Z,35.339355
2019-05-23T10:38:55.729Z,35.241699
2019-05-23T10:39:55.838Z,35.919189
2019-05-23T10:40:55.901Z,34.527588
2019-05-23T10:41:55.967Z,34.429932
2019-05-23T10:42:56.206Z,35.375977
2019-05-23T10:43:56.135Z,36.022949
2019-05-23T10:44:56.156Z,36.651611
2019-05-23T10:45:56.168Z,36.987305
2019-05-23T10:46:56.181Z,37.921143
2019-05-23T10:47:56.205Z,38.183594
2019-05-23T10:48:56.320Z,37.567139
2019-05-23T10:49:56.389Z,36.352539
2019-05-23T10:50:57.383Z,37.1521
2019-05-23T10:51:56.405Z,36.419678
2019-05-23T10:52:56.526Z,35.906982
2019-05-23T10:53:56.499Z,37.097168
2019-05-23T10:54:56.544Z,37.316895
2019-05-23T10:55:56.634Z,36.004639
2019-05-23T10:56:56.647Z,36.004639
2019-05-23T10:57:56.673Z,36.700439
2019-05-23T10:58:56.680Z,37.493896
2019-05-23T10:59:56.740Z,37.756348
2019-05-23T11:00:57.732Z,35.028076
2019-05-23T11:01:56.742Z,34.100342
2019-05-23T11:02:56.752Z,35.290527
2019-05-23T11:03:56.766Z,34.661865
2019-05-23T11:04:56.901Z,35.424805
2019-05-23T11:05:57.877Z,33.605957
2019-05-23T11:06:58.014Z,34.082031
2019-05-23T11:07:57.032Z,33.752441
2019-05-23T11:08:57.066Z,36.505127
2019-05-23T11:09:57.115Z,35.797119
2019-05-23T11:10:57.185Z,37.103271
2019-05-23T11:11:57.196Z,35.992432
2019-05-23T11:12:57.239Z,33.453369
2019-05-23T11:13:57.258Z,33.685303
2019-05-23T11:14:58.275Z,33.782959
2019-05-23T11:15:57.323Z,36.425781
2019-05-23T11:16:57.339Z,33.636475
2019-05-23T11:17:57.369Z,33.917236
2019-05-23T11:18:57.375Z,31.811523
2019-05-23T11:19:57.396Z,32.189941
2019-05-23T11:20:57.521Z,30.792236
2019-05-23T11:21:57.535Z,31.750488
2019-05-23T11:22:57.555Z,30.780029
2019-05-23T11:23:57.592Z,31.414795
2019-05-23T11:24:57.685Z,31.896973
2019-05-23T11:26:00.981Z,32.666016